sensor_id;sensor_type;location;lat;lon;timestamp;P1;durP1;ratioP1;P2;durP2;ratioP2
27802;SDS011;15182;48.174;11.562;2023-08-01T00:01:40;2.53;;;2.42;;
27802;SDS011;15182;48.174;11.562;2023-08-01T00:04:09;2.60;;;2.50;;
27802;SDS011;15182;48.174;11.562;2023-08-01T00:06:36;2.70;;;2.65;;
27802;SDS011;15182;48.174;11.562;2023-08-01T00:09:04;4.50;;;2.85;;
27802;SDS011;15182;48.174;11.562;2023-08-01T00:11:32;2.78;;;2.67;;
27802;SDS011;15182;48.174;11.562;2023-08-01T00:14:00;2.42;;;2.33;;
27802;SDS011;15182;48.174;11.562;2023-08-01T00:16:27;2.45;;;2.38;;
27802;SDS011;15182;48.174;11.562;2023-08-01T00:18:56;2.63;;;2.53;;
27802;SDS011;15182;48.174;11.562;2023-08-01T00:21:24;2.70;;;2.60;;
27802;SDS011;15182;48.174;11.562;2023-08-01T00:23:52;2.80;;;2.70;;
27802;SDS011;15182;48.174;11.562;2023-08-01T00:26:20;2.60;;;2.47;;
27802;SDS011;15182;48.174;11.562;2023-08-01T00:28:48;3.05;;;2.85;;
27802;SDS011;15182;48.174;11.562;2023-08-01T00:31:16;2.63;;;2.50;;
27802;SDS011;15182;48.174;11.562;2023-08-01T00:33:44;2.75;;;2.60;;
27802;SDS011;15182;48.174;11.562;2023-08-01T00:36:13;2.63;;;2.53;;
27802;SDS011;15182;48.174;11.562;2023-08-01T00:38:41;2.80;;;2.70;;
27802;SDS011;15182;48.174;11.562;2023-08-01T00:41:09;2.75;;;2.65;;
27802;SDS011;15182;48.174;11.562;2023-08-01T00:43:37;2.58;;;2.47;;
27802;SDS011;15182;48.174;11.562;2023-08-01T00:46:05;3.30;;;2.85;;
27802;SDS011;15182;48.174;11.562;2023-08-01T00:48:33;2.53;;;2.53;;
27802;SDS011;15182;48.174;11.562;2023-08-01T00:51:03;2.53;;;2.42;;
27802;SDS011;15182;48.174;11.562;2023-08-01T00:53:34;2.88;;;2.78;;
27802;SDS011;15182;48.174;11.562;2023-08-01T00:56:02;2.45;;;2.35;;
27802;SDS011;15182;48.174;11.562;2023-08-01T00:58:31;2.83;;;2.70;;
27802;SDS011;15182;48.174;11.562;2023-08-01T01:00:59;2.60;;;2.50;;
27802;SDS011;15182;48.174;11.562;2023-08-01T01:03:26;2.88;;;2.67;;
27802;SDS011;15182;48.174;11.562;2023-08-01T01:05:56;2.85;;;2.70;;
27802;SDS011;15182;48.174;11.562;2023-08-01T01:08:28;2.88;;;2.75;;
27802;SDS011;15182;48.174;11.562;2023-08-01T01:10:58;2.50;;;2.50;;
27802;SDS011;15182;48.174;11.562;2023-08-01T01:13:26;2.72;;;2.63;;
27802;SDS011;15182;48.174;11.562;2023-08-01T01:15:54;2.35;;;2.25;;
27802;SDS011;15182;48.174;11.562;2023-08-01T01:18:22;2.63;;;2.53;;
27802;SDS011;15182;48.174;11.562;2023-08-01T01:20:51;2.90;;;2.80;;
27802;SDS011;15182;48.174;11.562;2023-08-01T01:27:25;2.58;;;2.50;;
27802;SDS011;15182;48.174;11.562;2023-08-01T01:29:54;2.60;;;2.55;;
27802;SDS011;15182;48.174;11.562;2023-08-01T01:32:22;2.75;;;2.55;;
27802;SDS011;15182;48.174;11.562;2023-08-01T01:34:51;2.70;;;2.60;;
27802;SDS011;15182;48.174;11.562;2023-08-01T01:37:20;2.50;;;2.40;;
27802;SDS011;15182;48.174;11.562;2023-08-01T01:39:48;2.90;;;2.80;;
27802;SDS011;15182;48.174;11.562;2023-08-01T01:42:16;3.22;;;3.03;;
27802;SDS011;15182;48.174;11.562;2023-08-01T01:44:43;2.83;;;2.67;;
27802;SDS011;15182;48.174;11.562;2023-08-01T01:47:11;2.65;;;2.55;;
27802;SDS011;15182;48.174;11.562;2023-08-01T01:49:39;2.75;;;2.55;;
27802;SDS011;15182;48.174;11.562;2023-08-01T01:52:07;2.67;;;2.47;;
27802;SDS011;15182;48.174;11.562;2023-08-01T01:54:36;2.60;;;2.50;;
27802;SDS011;15182;48.174;11.562;2023-08-01T01:57:04;2.75;;;2.65;;
27802;SDS011;15182;48.174;11.562;2023-08-01T01:59:32;2.92;;;2.72;;
27802;SDS011;15182;48.174;11.562;2023-08-01T02:02:00;3.10;;;2.90;;
27802;SDS011;15182;48.174;11.562;2023-08-01T02:04:29;2.50;;;2.50;;
27802;SDS011;15182;48.174;11.562;2023-08-01T02:06:57;2.45;;;2.45;;
27802;SDS011;15182;48.174;11.562;2023-08-01T02:09:25;2.70;;;2.60;;
27802;SDS011;15182;48.174;11.562;2023-08-01T02:11:54;2.38;;;2.28;;
27802;SDS011;15182;48.174;11.562;2023-08-01T02:14:22;2.33;;;2.33;;
27802;SDS011;15182;48.174;11.562;2023-08-01T02:16:50;2.55;;;2.45;;
27802;SDS011;15182;48.174;11.562;2023-08-01T02:19:17;2.38;;;2.38;;
27802;SDS011;15182;48.174;11.562;2023-08-01T02:21:45;2.40;;;2.40;;
27802;SDS011;15182;48.174;11.562;2023-08-01T02:24:13;2.30;;;2.30;;
27802;SDS011;15182;48.174;11.562;2023-08-01T02:26:41;2.70;;;2.60;;
27802;SDS011;15182;48.174;11.562;2023-08-01T02:29:10;2.10;;;2.10;;
27802;SDS011;15182;48.174;11.562;2023-08-01T02:31:38;2.78;;;2.67;;
27802;SDS011;15182;48.174;11.562;2023-08-01T02:34:05;2.70;;;2.60;;
27802;SDS011;15182;48.174;11.562;2023-08-01T02:36:33;2.30;;;2.30;;
27802;SDS011;15182;48.174;11.562;2023-08-01T02:39:01;2.67;;;2.58;;
27802;SDS011;15182;48.174;11.562;2023-08-01T02:41:29;2.40;;;2.30;;
27802;SDS011;15182;48.174;11.562;2023-08-01T02:43:57;2.60;;;2.50;;
27802;SDS011;15182;48.174;11.562;2023-08-01T02:46:26;2.50;;;2.38;;
27802;SDS011;15182;48.174;11.562;2023-08-01T02:48:55;2.80;;;2.70;;
27802;SDS011;15182;48.174;11.562;2023-08-01T02:51:23;2.60;;;2.50;;
27802;SDS011;15182;48.174;11.562;2023-08-01T02:53:51;2.42;;;2.40;;
27802;SDS011;15182;48.174;11.562;2023-08-01T02:56:18;2.95;;;2.85;;
27802;SDS011;15182;48.174;11.562;2023-08-01T02:58:46;2.40;;;2.30;;
27802;SDS011;15182;48.174;11.562;2023-08-01T03:01:14;2.50;;;2.45;;
27802;SDS011;15182;48.174;11.562;2023-08-01T03:03:43;2.85;;;2.72;;
27802;SDS011;15182;48.174;11.562;2023-08-01T03:06:11;2.70;;;2.63;;
27802;SDS011;15182;48.174;11.562;2023-08-01T03:08:40;2.45;;;2.45;;
27802;SDS011;15182;48.174;11.562;2023-08-01T03:11:07;2.90;;;2.70;;
27802;SDS011;15182;48.174;11.562;2023-08-01T03:13:35;2.53;;;2.45;;
27802;SDS011;15182;48.174;11.562;2023-08-01T03:16:03;2.67;;;2.58;;
27802;SDS011;15182;48.174;11.562;2023-08-01T03:18:31;2.72;;;2.63;;
27802;SDS011;15182;48.174;11.562;2023-08-01T03:21:01;2.78;;;2.67;;
27802;SDS011;15182;48.174;11.562;2023-08-01T03:23:30;2.60;;;2.50;;
27802;SDS011;15182;48.174;11.562;2023-08-01T03:25:57;2.47;;;2.38;;
27802;SDS011;15182;48.174;11.562;2023-08-01T03:28:25;2.67;;;2.58;;
27802;SDS011;15182;48.174;11.562;2023-08-01T03:30:53;2.67;;;2.58;;
27802;SDS011;15182;48.174;11.562;2023-08-01T03:33:21;2.63;;;2.63;;
27802;SDS011;15182;48.174;11.562;2023-08-01T03:35:49;2.53;;;2.30;;
27802;SDS011;15182;48.174;11.562;2023-08-01T03:38:19;2.92;;;2.83;;
27802;SDS011;15182;48.174;11.562;2023-08-01T03:40:47;3.08;;;2.95;;
27802;SDS011;15182;48.174;11.562;2023-08-01T03:43:16;2.95;;;2.70;;
27802;SDS011;15182;48.174;11.562;2023-08-01T03:45:49;3.35;;;3.08;;
27802;SDS011;15182;48.174;11.562;2023-08-01T03:48:17;2.80;;;2.70;;
27802;SDS011;15182;48.174;11.562;2023-08-01T03:50:44;2.90;;;2.80;;
27802;SDS011;15182;48.174;11.562;2023-08-01T03:53:12;2.63;;;2.50;;
27802;SDS011;15182;48.174;11.562;2023-08-01T03:55:43;3.35;;;3.05;;
27802;SDS011;15182;48.174;11.562;2023-08-01T03:58:11;2.85;;;2.67;;
27802;SDS011;15182;48.174;11.562;2023-08-01T04:00:39;3.00;;;2.70;;
27802;SDS011;15182;48.174;11.562;2023-08-01T04:03:06;3.30;;;3.10;;
27802;SDS011;15182;48.174;11.562;2023-08-01T04:05:34;2.85;;;2.72;;
27802;SDS011;15182;48.174;11.562;2023-08-01T04:08:02;2.80;;;2.70;;
27802;SDS011;15182;48.174;11.562;2023-08-01T04:10:30;2.70;;;2.55;;
27802;SDS011;15182;48.174;11.562;2023-08-01T04:12:59;3.15;;;2.63;;
27802;SDS011;15182;48.174;11.562;2023-08-01T04:15:27;3.20;;;2.65;;
27802;SDS011;15182;48.174;11.562;2023-08-01T04:17:56;2.80;;;2.70;;
27802;SDS011;15182;48.174;11.562;2023-08-01T04:20:23;5.95;;;2.80;;
27802;SDS011;15182;48.174;11.562;2023-08-01T04:22:51;3.17;;;3.08;;
27802;SDS011;15182;48.174;11.562;2023-08-01T04:25:19;3.22;;;3.03;;
27802;SDS011;15182;48.174;11.562;2023-08-01T04:27:49;2.80;;;2.70;;
27802;SDS011;15182;48.174;11.562;2023-08-01T04:30:19;2.90;;;2.72;;
27802;SDS011;15182;48.174;11.562;2023-08-01T04:32:46;3.53;;;3.20;;
27802;SDS011;15182;48.174;11.562;2023-08-01T04:35:14;3.05;;;2.85;;
27802;SDS011;15182;48.174;11.562;2023-08-01T04:37:42;2.90;;;2.80;;
27802;SDS011;15182;48.174;11.562;2023-08-01T04:40:10;2.85;;;2.75;;
27802;SDS011;15182;48.174;11.562;2023-08-01T04:42:38;2.90;;;2.80;;
27802;SDS011;15182;48.174;11.562;2023-08-01T04:45:06;3.10;;;3.00;;
27802;SDS011;15182;48.174;11.562;2023-08-01T04:47:36;3.10;;;2.85;;
27802;SDS011;15182;48.174;11.562;2023-08-01T04:50:04;3.20;;;3.00;;
27802;SDS011;15182;48.174;11.562;2023-08-01T04:52:33;2.85;;;2.75;;
27802;SDS011;15182;48.174;11.562;2023-08-01T04:55:01;3.53;;;3.22;;
27802;SDS011;15182;48.174;11.562;2023-08-01T04:57:29;3.17;;;2.95;;
27802;SDS011;15182;48.174;11.562;2023-08-01T04:59:57;2.75;;;2.65;;
27802;SDS011;15182;48.174;11.562;2023-08-01T05:02:25;2.85;;;2.75;;
27802;SDS011;15182;48.174;11.562;2023-08-01T05:04:54;3.45;;;3.15;;
27802;SDS011;15182;48.174;11.562;2023-08-01T05:07:22;3.08;;;2.97;;
27802;SDS011;15182;48.174;11.562;2023-08-01T05:09:50;3.03;;;2.92;;
27802;SDS011;15182;48.174;11.562;2023-08-01T05:12:17;2.90;;;2.80;;
27802;SDS011;15182;48.174;11.562;2023-08-01T05:14:45;3.78;;;3.58;;
27802;SDS011;15182;48.174;11.562;2023-08-01T05:17:13;3.15;;;3.05;;
27802;SDS011;15182;48.174;11.562;2023-08-01T05:19:41;3.67;;;3.38;;
27802;SDS011;15182;48.174;11.562;2023-08-01T05:22:10;2.67;;;2.67;;
27802;SDS011;15182;48.174;11.562;2023-08-01T05:24:38;3.20;;;3.00;;
27802;SDS011;15182;48.174;11.562;2023-08-01T05:27:06;2.72;;;2.65;;
27802;SDS011;15182;48.174;11.562;2023-08-01T05:29:34;2.88;;;2.78;;
27802;SDS011;15182;48.174;11.562;2023-08-01T05:32:02;3.70;;;3.50;;
27802;SDS011;15182;48.174;11.562;2023-08-01T05:34:30;3.28;;;3.13;;
27802;SDS011;15182;48.174;11.562;2023-08-01T05:36:58;3.38;;;3.28;;
27802;SDS011;15182;48.174;11.562;2023-08-01T05:39:27;3.30;;;3.10;;
27802;SDS011;15182;48.174;11.562;2023-08-01T05:41:55;2.70;;;2.65;;
27802;SDS011;15182;48.174;11.562;2023-08-01T05:44:23;3.10;;;2.92;;
27802;SDS011;15182;48.174;11.562;2023-08-01T05:46:50;3.08;;;2.97;;
27802;SDS011;15182;48.174;11.562;2023-08-01T05:49:18;5.15;;;3.30;;
27802;SDS011;15182;48.174;11.562;2023-08-01T05:51:46;3.22;;;3.08;;
27802;SDS011;15182;48.174;11.562;2023-08-01T05:54:14;3.15;;;3.05;;
27802;SDS011;15182;48.174;11.562;2023-08-01T05:56:43;3.20;;;2.90;;
27802;SDS011;15182;48.174;11.562;2023-08-01T05:59:12;3.28;;;3.08;;
27802;SDS011;15182;48.174;11.562;2023-08-01T06:01:40;3.25;;;3.15;;
27802;SDS011;15182;48.174;11.562;2023-08-01T06:04:07;3.25;;;3.15;;
27802;SDS011;15182;48.174;11.562;2023-08-01T06:06:35;3.13;;;3.00;;
27802;SDS011;15182;48.174;11.562;2023-08-01T06:09:03;3.35;;;3.20;;
27802;SDS011;15182;48.174;11.562;2023-08-01T06:11:31;3.15;;;2.97;;
27802;SDS011;15182;48.174;11.562;2023-08-01T06:14:00;2.65;;;2.55;;
27802;SDS011;15182;48.174;11.562;2023-08-01T06:16:28;3.10;;;3.00;;
27802;SDS011;15182;48.174;11.562;2023-08-01T06:18:56;3.97;;;3.15;;
27802;SDS011;15182;48.174;11.562;2023-08-01T06:21:24;3.38;;;3.25;;
27802;SDS011;15182;48.174;11.562;2023-08-01T06:23:52;2.90;;;2.80;;
27802;SDS011;15182;48.174;11.562;2023-08-01T06:26:20;3.30;;;3.10;;
27802;SDS011;15182;48.174;11.562;2023-08-01T06:28:48;3.45;;;3.25;;
27802;SDS011;15182;48.174;11.562;2023-08-01T06:31:20;2.85;;;2.75;;
27802;SDS011;15182;48.174;11.562;2023-08-01T06:33:49;3.22;;;3.00;;
27802;SDS011;15182;48.174;11.562;2023-08-01T06:36:16;3.35;;;3.15;;
27802;SDS011;15182;48.174;11.562;2023-08-01T06:38:44;3.78;;;3.10;;
27802;SDS011;15182;48.174;11.562;2023-08-01T06:41:12;3.20;;;3.10;;
27802;SDS011;15182;48.174;11.562;2023-08-01T06:43:40;3.05;;;2.90;;
27802;SDS011;15182;48.174;11.562;2023-08-01T06:46:08;3.10;;;2.97;;
27802;SDS011;15182;48.174;11.562;2023-08-01T06:48:37;2.80;;;2.70;;
27802;SDS011;15182;48.174;11.562;2023-08-01T06:51:05;3.72;;;3.47;;
27802;SDS011;15182;48.174;11.562;2023-08-01T06:53:32;3.20;;;3.00;;
27802;SDS011;15182;48.174;11.562;2023-08-01T06:56:00;3.45;;;3.25;;
27802;SDS011;15182;48.174;11.562;2023-08-01T06:58:28;4.20;;;3.80;;
27802;SDS011;15182;48.174;11.562;2023-08-01T07:00:56;3.38;;;2.65;;
27802;SDS011;15182;48.174;11.562;2023-08-01T07:03:24;3.33;;;2.67;;
27802;SDS011;15182;48.174;11.562;2023-08-01T07:05:53;2.85;;;2.75;;
27802;SDS011;15182;48.174;11.562;2023-08-01T07:08:21;2.83;;;2.65;;
27802;SDS011;15182;48.174;11.562;2023-08-01T07:10:49;2.95;;;2.80;;
27802;SDS011;15182;48.174;11.562;2023-08-01T07:13:16;2.88;;;2.58;;
27802;SDS011;15182;48.174;11.562;2023-08-01T07:15:45;2.90;;;2.70;;
27802;SDS011;15182;48.174;11.562;2023-08-01T07:18:13;2.97;;;2.80;;
27802;SDS011;15182;48.174;11.562;2023-08-01T07:20:41;3.20;;;3.00;;
27802;SDS011;15182;48.174;11.562;2023-08-01T07:23:10;3.33;;;3.10;;
27802;SDS011;15182;48.174;11.562;2023-08-01T07:25:38;3.13;;;2.92;;
27802;SDS011;15182;48.174;11.562;2023-08-01T07:28:06;3.05;;;2.85;;
27802;SDS011;15182;48.174;11.562;2023-08-01T07:30:33;2.95;;;2.85;;
27802;SDS011;15182;48.174;11.562;2023-08-01T07:33:01;2.75;;;2.65;;
27802;SDS011;15182;48.174;11.562;2023-08-01T07:35:29;2.88;;;2.78;;
27802;SDS011;15182;48.174;11.562;2023-08-01T07:37:57;2.78;;;2.53;;
27802;SDS011;15182;48.174;11.562;2023-08-01T07:40:26;3.30;;;2.63;;
27802;SDS011;15182;48.174;11.562;2023-08-01T07:42:54;3.42;;;2.90;;
27802;SDS011;15182;48.174;11.562;2023-08-01T07:45:22;3.08;;;2.97;;
27802;SDS011;15182;48.174;11.562;2023-08-01T07:47:49;2.60;;;2.40;;
27802;SDS011;15182;48.174;11.562;2023-08-01T07:50:17;2.83;;;2.55;;
27802;SDS011;15182;48.174;11.562;2023-08-01T07:52:45;2.97;;;2.70;;
27802;SDS011;15182;48.174;11.562;2023-08-01T07:55:14;4.63;;;2.60;;
27802;SDS011;15182;48.174;11.562;2023-08-01T07:57:44;3.05;;;2.88;;
27802;SDS011;15182;48.174;11.562;2023-08-01T08:00:12;2.65;;;2.55;;
27802;SDS011;15182;48.174;11.562;2023-08-01T08:02:41;2.70;;;2.60;;
27802;SDS011;15182;48.174;11.562;2023-08-01T08:05:09;2.75;;;2.55;;
27802;SDS011;15182;48.174;11.562;2023-08-01T08:07:37;2.75;;;2.65;;
27802;SDS011;15182;48.174;11.562;2023-08-01T08:10:06;2.72;;;2.63;;
27802;SDS011;15182;48.174;11.562;2023-08-01T08:12:34;2.85;;;2.75;;
27802;SDS011;15182;48.174;11.562;2023-08-01T08:15:04;2.60;;;2.53;;
27802;SDS011;15182;48.174;11.562;2023-08-01T08:17:33;3.83;;;2.65;;
27802;SDS011;15182;48.174;11.562;2023-08-01T08:20:01;2.85;;;2.70;;
27802;SDS011;15182;48.174;11.562;2023-08-01T08:22:29;2.80;;;2.60;;
27802;SDS011;15182;48.174;11.562;2023-08-01T08:24:57;2.70;;;2.60;;
27802;SDS011;15182;48.174;11.562;2023-08-01T08:27:25;2.80;;;2.70;;
27802;SDS011;15182;48.174;11.562;2023-08-01T08:29:52;6.40;;;2.72;;
27802;SDS011;15182;48.174;11.562;2023-08-01T08:32:22;3.08;;;2.97;;
27802;SDS011;15182;48.174;11.562;2023-08-01T08:34:50;2.88;;;2.78;;
27802;SDS011;15182;48.174;11.562;2023-08-01T08:37:17;2.58;;;2.53;;
27802;SDS011;15182;48.174;11.562;2023-08-01T08:39:46;3.33;;;3.22;;
27802;SDS011;15182;48.174;11.562;2023-08-01T08:42:14;2.63;;;2.42;;
27802;SDS011;15182;48.174;11.562;2023-08-01T08:44:45;3.20;;;2.97;;
27802;SDS011;15182;48.174;11.562;2023-08-01T08:47:16;2.70;;;2.60;;
27802;SDS011;15182;48.174;11.562;2023-08-01T08:49:47;2.97;;;2.80;;
27802;SDS011;15182;48.174;11.562;2023-08-01T08:52:16;2.95;;;2.65;;
27802;SDS011;15182;48.174;11.562;2023-08-01T08:54:44;2.78;;;2.67;;
27802;SDS011;15182;48.174;11.562;2023-08-01T08:57:13;3.20;;;3.00;;
27802;SDS011;15182;48.174;11.562;2023-08-01T08:59:41;2.70;;;2.60;;
27802;SDS011;15182;48.174;11.562;2023-08-01T09:02:10;2.63;;;2.53;;
27802;SDS011;15182;48.174;11.562;2023-08-01T09:04:39;3.10;;;2.80;;
27802;SDS011;15182;48.174;11.562;2023-08-01T09:07:09;3.00;;;2.90;;
27802;SDS011;15182;48.174;11.562;2023-08-01T09:09:38;2.80;;;2.60;;
27802;SDS011;15182;48.174;11.562;2023-08-01T09:12:06;3.58;;;3.33;;
27802;SDS011;15182;48.174;11.562;2023-08-01T09:14:36;2.97;;;2.85;;
27802;SDS011;15182;48.174;11.562;2023-08-01T09:17:07;3.03;;;2.90;;
27802;SDS011;15182;48.174;11.562;2023-08-01T09:19:36;3.28;;;3.17;;
27802;SDS011;15182;48.174;11.562;2023-08-01T09:22:10;2.85;;;2.75;;
27802;SDS011;15182;48.174;11.562;2023-08-01T09:24:38;3.00;;;2.75;;
27802;SDS011;15182;48.174;11.562;2023-08-01T09:27:17;2.70;;;2.70;;
27802;SDS011;15182;48.174;11.562;2023-08-01T09:29:47;3.08;;;2.97;;
27802;SDS011;15182;48.174;11.562;2023-08-01T09:32:15;3.08;;;2.97;;
27802;SDS011;15182;48.174;11.562;2023-08-01T09:34:43;3.45;;;3.25;;
27802;SDS011;15182;48.174;11.562;2023-08-01T09:37:12;3.47;;;3.28;;
27802;SDS011;15182;48.174;11.562;2023-08-01T09:39:40;2.88;;;2.78;;
27802;SDS011;15182;48.174;11.562;2023-08-01T09:42:08;2.83;;;2.78;;
27802;SDS011;15182;48.174;11.562;2023-08-01T09:44:36;2.83;;;2.70;;
27802;SDS011;15182;48.174;11.562;2023-08-01T09:47:05;3.30;;;2.95;;
27802;SDS011;15182;48.174;11.562;2023-08-01T09:49:33;3.30;;;3.20;;
27802;SDS011;15182;48.174;11.562;2023-08-01T09:52:02;3.03;;;2.72;;
27802;SDS011;15182;48.174;11.562;2023-08-01T09:54:32;4.90;;;3.42;;
27802;SDS011;15182;48.174;11.562;2023-08-01T09:57:00;3.47;;;3.28;;
27802;SDS011;15182;48.174;11.562;2023-08-01T09:59:30;3.20;;;3.00;;
27802;SDS011;15182;48.174;11.562;2023-08-01T10:02:00;3.20;;;3.00;;
27802;SDS011;15182;48.174;11.562;2023-08-01T10:04:30;2.83;;;2.70;;
27802;SDS011;15182;48.174;11.562;2023-08-01T10:06:59;3.20;;;2.95;;
27802;SDS011;15182;48.174;11.562;2023-08-01T10:09:40;2.70;;;2.60;;
27802;SDS011;15182;48.174;11.562;2023-08-01T10:12:08;3.05;;;2.85;;
27802;SDS011;15182;48.174;11.562;2023-08-01T10:14:39;3.10;;;2.80;;
27802;SDS011;15182;48.174;11.562;2023-08-01T10:17:08;3.10;;;3.00;;
27802;SDS011;15182;48.174;11.562;2023-08-01T10:19:38;3.10;;;2.90;;
27802;SDS011;15182;48.174;11.562;2023-08-01T10:22:09;3.20;;;3.00;;
27802;SDS011;15182;48.174;11.562;2023-08-01T10:24:37;2.92;;;2.65;;
27802;SDS011;15182;48.174;11.562;2023-08-01T10:27:13;3.08;;;2.97;;
27802;SDS011;15182;48.174;11.562;2023-08-01T10:29:42;3.28;;;3.03;;
27802;SDS011;15182;48.174;11.562;2023-08-01T10:32:10;3.10;;;2.90;;
27802;SDS011;15182;48.174;11.562;2023-08-01T10:34:38;2.72;;;2.63;;
27802;SDS011;15182;48.174;11.562;2023-08-01T10:37:06;2.70;;;2.60;;
27802;SDS011;15182;48.174;11.562;2023-08-01T10:39:34;3.20;;;3.00;;
27802;SDS011;15182;48.174;11.562;2023-08-01T10:42:03;2.70;;;2.60;;
27802;SDS011;15182;48.174;11.562;2023-08-01T10:44:32;3.38;;;2.83;;
27802;SDS011;15182;48.174;11.562;2023-08-01T10:47:02;3.25;;;3.15;;
27802;SDS011;15182;48.174;11.562;2023-08-01T10:49:34;3.28;;;3.08;;
27802;SDS011;15182;48.174;11.562;2023-08-01T10:52:15;3.00;;;2.90;;
27802;SDS011;15182;48.174;11.562;2023-08-01T10:54:43;2.92;;;2.83;;
27802;SDS011;15182;48.174;11.562;2023-08-01T10:57:16;2.78;;;2.60;;
27802;SDS011;15182;48.174;11.562;2023-08-01T10:59:44;4.10;;;2.60;;
27802;SDS011;15182;48.174;11.562;2023-08-01T11:02:19;2.17;;;2.17;;
27802;SDS011;15182;48.174;11.562;2023-08-01T11:04:54;3.17;;;2.97;;
27802;SDS011;15182;48.174;11.562;2023-08-01T11:07:23;3.25;;;2.78;;
27802;SDS011;15182;48.174;11.562;2023-08-01T11:10:02;2.63;;;2.53;;
27802;SDS011;15182;48.174;11.562;2023-08-01T11:12:34;2.85;;;2.75;;
27802;SDS011;15182;48.174;11.562;2023-08-01T11:15:03;2.75;;;2.65;;
27802;SDS011;15182;48.174;11.562;2023-08-01T11:17:34;2.88;;;2.78;;
27802;SDS011;15182;48.174;11.562;2023-08-01T11:20:03;2.80;;;2.55;;
27802;SDS011;15182;48.174;11.562;2023-08-01T11:22:33;2.40;;;2.20;;
27802;SDS011;15182;48.174;11.562;2023-08-01T11:25:01;1.98;;;1.98;;
27802;SDS011;15182;48.174;11.562;2023-08-01T11:27:29;2.00;;;2.00;;
27802;SDS011;15182;48.174;11.562;2023-08-01T11:29:58;2.55;;;2.45;;
27802;SDS011;15182;48.174;11.562;2023-08-01T11:32:32;2.00;;;1.90;;
27802;SDS011;15182;48.174;11.562;2023-08-01T11:35:01;3.10;;;2.05;;
27802;SDS011;15182;48.174;11.562;2023-08-01T11:37:29;1.88;;;1.77;;
27802;SDS011;15182;48.174;11.562;2023-08-01T11:39:57;2.00;;;1.90;;
27802;SDS011;15182;48.174;11.562;2023-08-01T11:42:30;2.00;;;2.00;;
27802;SDS011;15182;48.174;11.562;2023-08-01T11:45:10;3.15;;;2.15;;
27802;SDS011;15182;48.174;11.562;2023-08-01T11:47:44;2.20;;;2.13;;
27802;SDS011;15182;48.174;11.562;2023-08-01T11:50:13;2.13;;;2.13;;
27802;SDS011;15182;48.174;11.562;2023-08-01T11:52:45;2.53;;;2.42;;
27802;SDS011;15182;48.174;11.562;2023-08-01T11:55:18;2.35;;;2.25;;
27802;SDS011;15182;48.174;11.562;2023-08-01T11:57:54;2.50;;;2.40;;
27802;SDS011;15182;48.174;11.562;2023-08-01T12:00:24;2.13;;;2.10;;
27802;SDS011;15182;48.174;11.562;2023-08-01T12:03:04;1.95;;;1.95;;
27802;SDS011;15182;48.174;11.562;2023-08-01T12:05:33;2.25;;;2.25;;
27802;SDS011;15182;48.174;11.562;2023-08-01T12:08:07;2.40;;;2.40;;
27802;SDS011;15182;48.174;11.562;2023-08-01T12:10:37;2.10;;;2.10;;
27802;SDS011;15182;48.174;11.562;2023-08-01T12:13:06;2.60;;;2.50;;
27802;SDS011;15182;48.174;11.562;2023-08-01T12:15:47;2.50;;;2.40;;
27802;SDS011;15182;48.174;11.562;2023-08-01T12:18:22;2.80;;;2.60;;
27802;SDS011;15182;48.174;11.562;2023-08-01T12:20:51;2.17;;;2.17;;
27802;SDS011;15182;48.174;11.562;2023-08-01T12:23:19;2.40;;;2.30;;
27802;SDS011;15182;48.174;11.562;2023-08-01T12:25:47;2.50;;;2.40;;
27802;SDS011;15182;48.174;11.562;2023-08-01T12:28:15;2.28;;;2.28;;
27802;SDS011;15182;48.174;11.562;2023-08-01T12:30:43;2.28;;;2.28;;
27802;SDS011;15182;48.174;11.562;2023-08-01T12:33:12;2.50;;;2.30;;
27802;SDS011;15182;48.174;11.562;2023-08-01T12:35:40;2.40;;;2.30;;
27802;SDS011;15182;48.174;11.562;2023-08-01T12:38:09;2.08;;;1.98;;
27802;SDS011;15182;48.174;11.562;2023-08-01T12:40:37;2.10;;;2.10;;
27802;SDS011;15182;48.174;11.562;2023-08-01T12:43:04;2.25;;;2.15;;
27802;SDS011;15182;48.174;11.562;2023-08-01T12:45:32;2.03;;;1.90;;
27802;SDS011;15182;48.174;11.562;2023-08-01T12:48:00;2.08;;;2.08;;
27802;SDS011;15182;48.174;11.562;2023-08-01T12:50:29;2.00;;;2.00;;
27802;SDS011;15182;48.174;11.562;2023-08-01T12:52:57;2.78;;;2.67;;
27802;SDS011;15182;48.174;11.562;2023-08-01T12:55:24;2.08;;;2.08;;
27802;SDS011;15182;48.174;11.562;2023-08-01T12:57:52;1.90;;;1.80;;
27802;SDS011;15182;48.174;11.562;2023-08-01T13:00:20;2.75;;;2.55;;
27802;SDS011;15182;48.174;11.562;2023-08-01T13:02:48;2.20;;;2.10;;
27802;SDS011;15182;48.174;11.562;2023-08-01T13:05:16;2.25;;;2.25;;
27802;SDS011;15182;48.174;11.562;2023-08-01T13:07:45;5.40;;;1.88;;
27802;SDS011;15182;48.174;11.562;2023-08-01T13:10:15;2.28;;;2.20;;
27802;SDS011;15182;48.174;11.562;2023-08-01T13:12:43;1.85;;;1.80;;
27802;SDS011;15182;48.174;11.562;2023-08-01T13:15:11;2.13;;;2.03;;
27802;SDS011;15182;48.174;11.562;2023-08-01T13:17:39;1.80;;;1.80;;
27802;SDS011;15182;48.174;11.562;2023-08-01T13:20:07;4.07;;;2.00;;
27802;SDS011;15182;48.174;11.562;2023-08-01T13:22:35;2.03;;;1.92;;
27802;SDS011;15182;48.174;11.562;2023-08-01T13:25:05;2.22;;;2.05;;
27802;SDS011;15182;48.174;11.562;2023-08-01T13:27:33;2.13;;;2.03;;
27802;SDS011;15182;48.174;11.562;2023-08-01T13:30:02;2.10;;;2.10;;
27802;SDS011;15182;48.174;11.562;2023-08-01T13:32:31;2.40;;;2.10;;
27802;SDS011;15182;48.174;11.562;2023-08-01T13:34:58;2.03;;;2.03;;
27802;SDS011;15182;48.174;11.562;2023-08-01T13:37:26;2.28;;;2.17;;
27802;SDS011;15182;48.174;11.562;2023-08-01T13:39:56;2.15;;;2.15;;
27802;SDS011;15182;48.174;11.562;2023-08-01T13:42:25;2.10;;;2.03;;
27802;SDS011;15182;48.174;11.562;2023-08-01T13:44:53;2.00;;;2.00;;
27802;SDS011;15182;48.174;11.562;2023-08-01T13:47:21;3.72;;;2.28;;
27802;SDS011;15182;48.174;11.562;2023-08-01T13:49:49;2.25;;;2.17;;
27802;SDS011;15182;48.174;11.562;2023-08-01T13:52:17;1.88;;;1.88;;
27802;SDS011;15182;48.174;11.562;2023-08-01T13:54:45;2.00;;;2.00;;
27802;SDS011;15182;48.174;11.562;2023-08-01T13:57:13;2.25;;;2.15;;
27802;SDS011;15182;48.174;11.562;2023-08-01T13:59:42;2.22;;;2.00;;
27802;SDS011;15182;48.174;11.562;2023-08-01T14:02:10;2.20;;;2.20;;
27802;SDS011;15182;48.174;11.562;2023-08-01T14:04:38;2.10;;;2.00;;
27802;SDS011;15182;48.174;11.562;2023-08-01T14:07:06;2.67;;;2.40;;
27802;SDS011;15182;48.174;11.562;2023-08-01T14:09:33;4.53;;;2.47;;
27802;SDS011;15182;48.174;11.562;2023-08-01T14:12:02;2.25;;;2.17;;
27802;SDS011;15182;48.174;11.562;2023-08-01T14:14:31;2.25;;;2.20;;
27802;SDS011;15182;48.174;11.562;2023-08-01T14:17:00;2.50;;;2.40;;
27802;SDS011;15182;48.174;11.562;2023-08-01T14:19:28;2.30;;;2.15;;
27802;SDS011;15182;48.174;11.562;2023-08-01T14:21:55;3.08;;;2.22;;
27802;SDS011;15182;48.174;11.562;2023-08-01T14:24:23;2.55;;;2.45;;
27802;SDS011;15182;48.174;11.562;2023-08-01T14:26:51;4.00;;;2.70;;
27802;SDS011;15182;48.174;11.562;2023-08-01T14:29:19;2.40;;;2.35;;
27802;SDS011;15182;48.174;11.562;2023-08-01T14:31:48;2.45;;;2.35;;
27802;SDS011;15182;48.174;11.562;2023-08-01T14:34:18;1.98;;;1.88;;
27802;SDS011;15182;48.174;11.562;2023-08-01T14:36:45;1.75;;;1.70;;
27802;SDS011;15182;48.174;11.562;2023-08-01T14:39:13;1.63;;;1.52;;
27802;SDS011;15182;48.174;11.562;2023-08-01T14:41:41;1.60;;;1.60;;
27802;SDS011;15182;48.174;11.562;2023-08-01T14:44:09;1.38;;;1.38;;
27802;SDS011;15182;48.174;11.562;2023-08-01T14:46:36;1.40;;;1.40;;